createdAt,value
2022-11-07T00:03:43.972Z,1.67
2022-11-07T00:10:26.297Z,1.50
2022-11-07T00:17:09.651Z,1.60
2022-11-07T00:23:52.053Z,1.50
2022-11-07T00:30:34.325Z,1.80
2022-11-07T00:37:16.638Z,1.40
2022-11-07T00:43:58.994Z,1.70
2022-11-07T00:50:41.321Z,1.50
2022-11-07T00:57:23.994Z,1.40
2022-11-07T01:04:24.812Z,1.45
2022-11-07T01:11:07.897Z,1.33
2022-11-07T01:17:50.413Z,1.05
2022-11-07T01:24:32.758Z,1.30
2022-11-07T01:31:16.366Z,1.17
2022-11-07T01:37:58.692Z,1.08
2022-11-07T01:44:52.474Z,1.10
2022-11-07T01:51:41.419Z,1.20
2022-11-07T01:58:23.830Z,1.40
2022-11-07T02:05:08.804Z,1.55
2022-11-07T02:11:51.928Z,1.38
2022-11-07T02:18:36.738Z,1.30
2022-11-07T02:25:20.201Z,1.50
2022-11-07T02:32:08.766Z,1.48
2022-11-07T02:38:57.418Z,1.77
2022-11-07T02:45:43.432Z,1.55
2022-11-07T02:52:25.728Z,1.33
2022-11-07T02:59:08.052Z,1.60
2022-11-07T03:05:50.398Z,2.50
2022-11-07T03:12:32.701Z,1.70
2022-11-07T03:19:15.214Z,1.50
2022-11-07T03:25:57.516Z,1.25
2022-11-07T03:32:39.842Z,1.60
2022-11-07T03:39:25.822Z,1.48
2022-11-07T03:46:08.353Z,1.27
2022-11-07T03:52:50.646Z,1.45
2022-11-07T03:59:33.134Z,1.50
2022-11-07T04:06:15.473Z,1.58
2022-11-07T04:13:16.898Z,1.55
2022-11-07T04:19:59.378Z,1.60
2022-11-07T04:27:00.274Z,1.60
2022-11-07T04:33:42.821Z,1.70
2022-11-07T04:40:26.055Z,1.33
2022-11-07T04:47:08.375Z,1.27
2022-11-07T04:53:50.704Z,1.80
2022-11-07T05:00:33.284Z,1.85
2022-11-07T05:07:15.674Z,1.58
2022-11-07T05:13:57.936Z,1.58
2022-11-07T05:20:40.718Z,1.67
2022-11-07T05:27:23.992Z,2.13
2022-11-07T05:34:09.687Z,1.95
2022-11-07T05:40:54.455Z,2.30
2022-11-07T05:47:36.733Z,1.80
2022-11-07T05:54:19.103Z,2.80
2022-11-07T06:01:06.088Z,2.58
2022-11-07T06:07:48.454Z,2.22
2022-11-07T06:14:30.825Z,2.38
2022-11-07T06:21:13.930Z,2.22
2022-11-07T06:28:11.105Z,1.92
2022-11-07T06:34:53.441Z,2.80
2022-11-07T06:41:35.756Z,3.47
2022-11-07T06:48:18.033Z,3.17
2022-11-07T06:55:00.338Z,3.78
2022-11-07T07:01:42.724Z,4.40
2022-11-07T07:08:25.176Z,3.55
2022-11-07T07:15:08.358Z,2.85
2022-11-07T07:22:03.775Z,4.53
2022-11-07T07:28:46.373Z,3.90
2022-11-07T07:35:28.727Z,3.53
2022-11-07T07:42:16.304Z,3.55
2022-11-07T07:49:00.655Z,4.43
2022-11-07T07:55:43.527Z,3.10
2022-11-07T08:02:25.904Z,2.92
2022-11-07T08:09:08.258Z,3.40
2022-11-07T08:15:51.774Z,3.35
2022-11-07T08:22:34.083Z,2.53
2022-11-07T08:29:16.449Z,3.30
2022-11-07T08:36:02.612Z,3.28
2022-11-07T08:42:44.930Z,3.72
2022-11-07T08:49:27.238Z,2.95
2022-11-07T08:56:10.487Z,2.72
2022-11-07T09:09:55.466Z,2.65
2022-11-07T09:16:37.759Z,3.00
2022-11-07T09:23:20.579Z,2.72
2022-11-07T09:30:04.455Z,2.80
2022-11-07T09:36:46.802Z,2.63
2022-11-07T09:43:42.297Z,3.30
2022-11-07T09:50:32.980Z,2.40
2022-11-07T09:57:17.533Z,2.80
2022-11-07T10:11:15.444Z,2.78
2022-11-07T10:18:33.213Z,3.00
2022-11-07T10:25:58.057Z,2.97
2022-11-07T10:33:11.175Z,2.60
2022-11-07T10:39:54.051Z,2.58
2022-11-07T10:46:39.413Z,2.40
2022-11-07T10:53:23.511Z,1.70
2022-11-07T11:00:25.157Z,2.45
2022-11-07T11:07:15.362Z,1.83
2022-11-07T11:14:06.537Z,1.88
2022-11-07T11:21:03.344Z,2.20
2022-11-07T11:27:48.801Z,2.13
2022-11-07T11:34:49.234Z,1.88
2022-11-07T11:41:47.834Z,1.90
2022-11-07T11:48:48.517Z,1.90
2022-11-07T11:55:39.109Z,1.92
2022-11-07T12:02:30.348Z,2.22
2022-11-07T12:09:21.779Z,1.65
2022-11-07T12:16:04.043Z,1.55
2022-11-07T12:23:10.267Z,1.80
2022-11-07T12:30:01.659Z,2.15
2022-11-07T12:37:14.034Z,3.10
2022-11-07T12:44:17.791Z,2.10
2022-11-07T12:51:35.199Z,1.75
2022-11-07T12:58:38.990Z,2.05
2022-11-07T13:06:03.231Z,11.00
2022-11-07T13:13:06.703Z,1.88
2022-11-07T13:20:05.681Z,1.40
2022-11-07T13:26:48.517Z,1.70
2022-11-07T13:33:48.347Z,1.55
2022-11-07T13:40:52.639Z,1.63
2022-11-07T13:47:40.936Z,2.10
2022-11-07T13:54:28.768Z,1.42
2022-11-07T14:01:13.072Z,1.67
2022-11-07T14:08:00.702Z,2.60
2022-11-07T14:14:43.344Z,1.85
2022-11-07T14:21:31.927Z,1.70
2022-11-07T14:28:16.633Z,1.50
2022-11-07T14:35:00.122Z,1.63
2022-11-07T14:41:43.876Z,2.10
2022-11-07T14:48:28.286Z,1.98
2022-11-07T14:55:26.706Z,1.83
2022-11-07T15:02:31.635Z,1.33
2022-11-07T15:09:14.073Z,1.55
2022-11-07T15:16:13.779Z,1.88
2022-11-07T15:22:56.721Z,1.75
2022-11-07T15:29:39.773Z,1.80
2022-11-07T15:36:22.660Z,2.25
2022-11-07T15:43:04.987Z,2.40
2022-11-07T15:49:48.444Z,2.10
2022-11-07T15:56:30.782Z,2.20
2022-11-07T16:03:16.032Z,2.33
2022-11-07T16:09:58.455Z,2.42
2022-11-07T16:16:44.252Z,2.53
2022-11-07T16:23:26.759Z,2.45
2022-11-07T16:30:15.821Z,3.65
2022-11-07T16:36:58.154Z,3.58
2022-11-07T16:43:40.957Z,3.83
2022-11-07T16:50:23.462Z,2.92
2022-11-07T16:57:14.296Z,2.95
2022-11-07T17:03:56.647Z,3.05
2022-11-07T17:10:39.004Z,3.17
2022-11-07T17:17:21.502Z,3.00
2022-11-07T17:24:05.305Z,3.88
2022-11-07T17:30:47.908Z,3.38
2022-11-07T17:37:30.207Z,4.80
2022-11-07T17:44:12.998Z,4.53
2022-11-07T17:50:55.549Z,4.07
2022-11-07T17:57:42.376Z,11.45
2022-11-07T18:04:24.704Z,5.40
2022-11-07T18:11:07.326Z,4.78
2022-11-07T18:17:49.676Z,3.38
2022-11-07T18:24:32.325Z,3.78
2022-11-07T18:31:16.801Z,22.92
2022-11-07T18:37:59.168Z,5.13
2022-11-07T18:44:41.635Z,4.13
2022-11-07T18:51:24.643Z,5.05
2022-11-07T18:58:07.192Z,4.47
2022-11-07T19:04:49.534Z,5.05
2022-11-07T19:11:33.869Z,4.72
2022-11-07T19:18:16.686Z,5.18
2022-11-07T19:24:59.210Z,4.93
2022-11-07T19:31:41.567Z,5.38
2022-11-07T19:38:23.901Z,6.88
2022-11-07T19:45:07.146Z,6.18
2022-11-07T19:51:49.534Z,6.50
2022-11-07T19:58:31.880Z,6.60
2022-11-07T20:05:23.746Z,7.22
2022-11-07T20:12:06.354Z,7.43
2022-11-07T20:18:52.275Z,8.18
2022-11-07T20:25:34.688Z,7.28
2022-11-07T20:32:21.836Z,7.35
2022-11-07T20:39:04.496Z,8.40
2022-11-07T20:45:46.908Z,8.63
2022-11-07T20:52:29.241Z,7.45
2022-11-07T20:59:11.898Z,7.75
2022-11-07T21:05:54.809Z,8.30
2022-11-07T21:12:37.357Z,8.45
2022-11-07T21:19:19.679Z,8.60
2022-11-07T21:26:06.511Z,9.27
2022-11-07T21:32:48.834Z,9.88
2022-11-07T21:39:31.182Z,8.90
2022-11-07T21:46:19.116Z,7.88
2022-11-07T21:53:01.886Z,7.53
2022-11-07T21:59:46.161Z,8.20
2022-11-07T22:06:29.363Z,7.88
2022-11-07T22:13:11.761Z,8.23
2022-11-07T22:19:56.344Z,7.85
2022-11-07T22:26:39.881Z,8.00
2022-11-07T22:33:22.681Z,7.55
2022-11-07T22:40:05.631Z,8.00
2022-11-07T22:46:47.989Z,7.45
2022-11-07T22:53:30.586Z,7.70
2022-11-07T23:00:21.453Z,7.32
2022-11-07T23:07:04.209Z,7.57
2022-11-07T23:13:46.578Z,7.63
2022-11-07T23:20:47.476Z,6.93
2022-11-07T23:27:29.860Z,8.23
2022-11-07T23:34:12.286Z,8.40
2022-11-07T23:40:55.591Z,8.70
2022-11-07T23:47:56.463Z,9.38
2022-11-07T23:54:57.481Z,9.00
